Time;durP1;ratioP1;P1;durP2;ratioP2;P2;SDS_P1;SDS_P2;PMS_P1;PMS_P2;Temp;Humidity;BMP_temperature;BMP_pressure;BME280_temperature;BME280_humidity;BME280_pressure;Samples;Min_cycle;Max_cycle;Signal;HPM_P1;HPM_P2
2023/06/26 00:02:21;;;;;;;10.98;10.07;;;21.10;99.90;;;;;;5047945;28;20032;-87
2023/06/26 00:04:47;;;;;;;11.80;10.70;;;21.00;99.90;;;;;;5022364;28;20093;-88
2023/06/26 00:07:12;;;;;;;11.55;10.65;;;21.00;99.90;;;;;;5050472;28;20103;-87
2023/06/26 00:09:38;;;;;;;11.13;10.15;;;21.00;99.90;;;;;;5030847;28;20044;-88
2023/06/26 00:12:04;;;;;;;12.27;11.18;;;20.90;99.90;;;;;;5049972;28;20155;-87
2023/06/26 00:14:30;;;;;;;12.45;11.45;;;20.90;99.90;;;;;;5047517;28;20520;-87
2023/06/26 00:16:56;;;;;;;12.93;11.73;;;20.90;99.90;;;;;;5044659;28;20120;-88
2023/06/26 00:19:21;;;;;;;12.02;11.02;;;20.90;99.90;;;;;;5048019;28;20075;-87
2023/06/26 00:21:47;;;;;;;12.85;11.65;;;20.90;99.90;;;;;;5044968;28;20182;-88
2023/06/26 00:24:17;;;;;;;12.23;11.13;;;20.90;99.90;;;;;;5054687;28;20040;-87
2023/06/26 00:26:45;;;;;;;13.60;12.38;;;20.90;99.90;;;;;;5036520;28;20035;-88
2023/06/26 00:29:11;;;;;;;13.45;12.27;;;20.80;99.90;;;;;;5028423;28;20041;-89
2023/06/26 00:31:37;;;;;;;12.73;11.63;;;20.80;99.90;;;;;;5028106;28;20063;-88
2023/06/26 00:34:03;;;;;;;12.35;11.35;;;20.70;99.90;;;;;;5034552;28;20539;-88
2023/06/26 00:36:29;;;;;;;12.77;11.68;;;20.70;99.90;;;;;;5036705;28;20070;-87
2023/06/26 00:38:54;;;;;;;14.13;12.85;;;20.70;99.90;;;;;;5052812;28;20041;-87
2023/06/26 00:41:20;;;;;;;12.20;11.20;;;20.70;99.90;;;;;;5032478;28;20043;-87
2023/06/26 00:43:46;;;;;;;13.38;12.25;;;20.60;99.90;;;;;;5043513;28;20449;-88
2023/06/26 00:46:15;;;;;;;12.75;11.65;;;20.60;99.90;;;;;;5028732;28;20067;-87
2023/06/26 00:48:43;;;;;;;12.80;11.65;;;20.60;99.90;;;;;;5024983;28;20103;-87
2023/06/26 00:51:09;;;;;;;12.48;11.38;;;20.60;99.90;;;;;;5033590;28;20036;-88
2023/06/26 00:53:36;;;;;;;13.60;12.43;;;20.60;99.90;;;;;;5045194;28;20044;-88
2023/06/26 00:56:03;;;;;;;12.77;11.68;;;20.50;99.90;;;;;;5046011;28;20099;-88
2023/06/26 00:58:28;;;;;;;13.73;12.38;;;20.50;99.90;;;;;;5045591;28;20362;-86
2023/06/26 01:00:54;;;;;;;14.57;12.30;;;20.50;99.90;;;;;;5046957;28;20036;-87
2023/06/26 01:03:23;;;;;;;13.73;12.52;;;20.40;99.90;;;;;;5030222;28;20041;-87
2023/06/26 01:05:54;;;;;;;13.75;12.45;;;20.40;99.90;;;;;;5034247;28;20378;-88
2023/06/26 01:08:20;;;;;;;13.25;12.15;;;20.40;99.90;;;;;;5045287;28;20048;-88
2023/06/26 01:10:46;;;;;;;14.10;12.82;;;20.40;99.90;;;;;;5050926;28;20052;-87
2023/06/26 01:13:14;;;;;;;14.05;12.77;;;20.40;99.90;;;;;;5042510;28;20044;-88
2023/06/26 01:15:40;;;;;;;14.13;12.93;;;20.30;99.90;;;;;;5035150;28;20048;-88
2023/06/26 01:18:06;;;;;;;13.20;12.10;;;20.30;99.90;;;;;;5049981;28;20048;-88
2023/06/26 01:20:35;;;;;;;15.13;13.93;;;20.30;99.90;;;;;;5031730;28;20037;-87
2023/06/26 01:23:23;;;;;;;14.55;12.68;;;20.30;99.90;;;;;;5049183;28;20051;-88
2023/06/26 01:26:07;;;;;;;14.95;13.55;;;20.30;99.90;;;;;;5050988;28;20033;-88
2023/06/26 01:28:41;;;;;;;14.50;13.20;;;20.30;99.90;;;;;;5050541;28;20049;-87
2023/06/26 01:31:08;;;;;;;15.20;13.90;;;20.20;99.90;;;;;;5044467;28;20172;-88
2023/06/26 01:33:34;;;;;;;14.05;12.77;;;20.20;99.90;;;;;;5049778;28;20052;-88
2023/06/26 01:36:00;;;;;;;14.15;12.77;;;20.20;99.90;;;;;;5027611;28;20462;-88
2023/06/26 01:38:26;;;;;;;15.05;13.75;;;20.20;99.90;;;;;;5022124;28;20051;-87
2023/06/26 01:40:52;;;;;;;13.90;12.70;;;20.20;99.90;;;;;;5048160;28;20029;-87
2023/06/26 01:43:55;;;;;;;14.55;13.35;;;20.20;99.90;;;;;;5048922;28;20503;-87
2023/06/26 01:46:42;;;;;;;15.05;13.55;;;20.20;99.90;;;;;;5048029;28;20501;-87
2023/06/26 01:49:46;;;;;;;13.35;12.15;;;20.10;99.90;;;;;;5041249;28;20725;-87
2023/06/26 01:52:16;;;;;;;14.23;12.98;;;20.10;99.90;;;;;;5023048;28;20036;-87
2023/06/26 01:55:07;;;;;;;14.65;13.25;;;20.10;99.90;;;;;;5026240;28;20440;-88
2023/06/26 01:57:35;;;;;;;15.18;13.85;;;20.10;99.90;;;;;;5002530;28;20048;-87
2023/06/26 02:00:02;;;;;;;15.25;13.82;;;20.10;99.90;;;;;;5032885;28;20557;-87
2023/06/26 02:02:29;;;;;;;14.60;13.40;;;20.00;99.90;;;;;;5035275;28;20037;-88
2023/06/26 02:04:55;;;;;;;14.63;13.27;;;20.00;99.90;;;;;;5048642;28;20068;-87
2023/06/26 02:07:20;;;;;;;14.27;13.02;;;19.90;99.90;;;;;;5036519;28;20079;-87
2023/06/26 02:09:46;;;;;;;14.93;13.50;;;19.90;99.90;;;;;;5041617;28;20110;-87
2023/06/26 02:12:12;;;;;;;14.43;13.07;;;19.90;99.90;;;;;;5050858;28;20119;-87
2023/06/26 02:14:37;;;;;;;14.15;12.90;;;19.80;99.90;;;;;;5033159;28;20051;-88
2023/06/26 02:17:04;;;;;;;14.73;13.52;;;19.80;99.90;;;;;;5031105;28;20087;-87
2023/06/26 02:19:29;;;;;;;15.30;13.85;;;19.80;99.90;;;;;;5046229;28;20132;-87
2023/06/26 02:21:55;;;;;;;15.70;14.23;;;19.70;99.90;;;;;;5043697;28;20119;-87
2023/06/26 02:24:21;;;;;;;15.35;13.85;;;19.70;99.90;;;;;;5048394;28;20115;-87
2023/06/26 02:26:46;;;;;;;14.15;12.93;;;19.70;99.90;;;;;;5050419;28;20032;-87
2023/06/26 02:29:12;;;;;;;13.57;12.27;;;19.70;99.90;;;;;;5045455;28;20546;-87
2023/06/26 02:31:38;;;;;;;14.82;13.50;;;19.70;99.90;;;;;;5050106;28;20502;-88
2023/06/26 02:34:04;;;;;;;14.20;13.00;;;19.70;99.90;;;;;;5040940;28;20055;-88
2023/06/26 02:36:30;;;;;;;14.55;13.27;;;19.70;99.90;;;;;;5035793;28;20051;-87
2023/06/26 02:38:55;;;;;;;15.15;13.80;;;19.70;99.90;;;;;;5030308;28;20032;-87
2023/06/26 02:41:21;;;;;;;15.48;14.20;;;19.70;99.90;;;;;;5041165;28;20028;-87
2023/06/26 02:43:47;;;;;;;15.75;14.15;;;19.70;99.90;;;;;;5026938;28;20033;-87
2023/06/26 02:46:12;;;;;;;16.08;14.68;;;19.70;99.90;;;;;;5027695;28;20067;-87
2023/06/26 02:48:38;;;;;;;14.70;13.27;;;19.70;99.90;;;;;;5043388;28;20056;-87
2023/06/26 02:51:04;;;;;;;14.25;13.07;;;19.80;99.90;;;;;;5038379;28;20041;-88
2023/06/26 02:53:31;;;;;;;14.82;13.43;;;19.70;99.90;;;;;;5041056;28;20626;-87
2023/06/26 02:55:56;;;;;;;15.40;14.02;;;19.70;99.90;;;;;;5045212;28;20089;-87
2023/06/26 02:58:22;;;;;;;14.70;13.40;;;19.70;99.90;;;;;;5051650;28;20037;-88
2023/06/26 03:00:48;;;;;;;15.80;14.48;;;19.70;99.90;;;;;;5041457;28;20036;-87
2023/06/26 03:03:13;;;;;;;15.05;13.73;;;19.70;99.90;;;;;;5050717;28;20037;-87
2023/06/26 03:05:39;;;;;;;15.50;14.10;;;19.80;99.90;;;;;;5031990;28;20115;-87
2023/06/26 03:08:05;;;;;;;15.43;14.02;;;19.80;99.90;;;;;;5049987;28;20032;-87
2023/06/26 03:10:31;;;;;;;15.43;13.93;;;19.80;99.90;;;;;;5031584;28;20509;-87
2023/06/26 03:12:56;;;;;;;15.40;14.00;;;19.80;99.90;;;;;;5028220;28;20099;-87
2023/06/26 03:15:22;;;;;;;16.85;15.25;;;19.90;99.90;;;;;;5044680;28;20064;-87
2023/06/26 03:17:48;;;;;;;16.63;15.13;;;19.90;99.90;;;;;;5042349;28;20045;-87
2023/06/26 03:20:15;;;;;;;16.77;15.38;;;20.00;99.90;;;;;;5044371;28;20025;-86
2023/06/26 03:22:41;;;;;;;17.85;16.27;;;20.00;99.90;;;;;;5039138;28;20109;-87
2023/06/26 03:25:06;;;;;;;18.08;16.48;;;20.10;99.90;;;;;;5030253;28;20111;-87
2023/06/26 03:27:32;;;;;;;15.65;14.35;;;20.20;99.90;;;;;;5024217;28;20036;-86
2023/06/26 03:29:58;;;;;;;17.15;15.55;;;20.20;99.90;;;;;;5044380;28;20116;-87
2023/06/26 03:32:23;;;;;;;17.95;16.42;;;20.20;99.90;;;;;;5029228;28;20472;-87
2023/06/26 03:34:49;;;;;;;16.50;15.10;;;20.20;99.90;;;;;;5033579;28;20343;-86
2023/06/26 03:37:15;;;;;;;17.02;15.52;;;20.20;99.90;;;;;;5044610;28;20147;-87
2023/06/26 03:39:40;;;;;;;17.25;15.57;;;20.30;99.90;;;;;;5045122;28;20501;-87
2023/06/26 03:42:06;;;;;;;18.25;16.65;;;20.30;99.90;;;;;;5027139;28;20405;-87
2023/06/26 03:44:32;;;;;;;18.73;16.98;;;20.40;99.90;;;;;;5039589;28;20024;-86
2023/06/26 03:46:57;;;;;;;18.55;16.90;;;20.40;99.90;;;;;;5043002;28;20063;-87
2023/06/26 03:49:23;;;;;;;18.17;16.58;;;20.40;99.90;;;;;;5053813;28;20040;-87
2023/06/26 03:51:49;;;;;;;18.65;16.90;;;20.40;99.90;;;;;;5053162;28;20036;-87
2023/06/26 03:54:14;;;;;;;17.00;15.50;;;20.40;99.90;;;;;;5051655;28;20040;-87
2023/06/26 03:56:40;;;;;;;19.67;17.65;;;20.50;99.90;;;;;;5028677;28;20055;-87
2023/06/26 03:59:06;;;;;;;18.40;16.75;;;20.50;99.90;;;;;;5052536;28;20032;-87
2023/06/26 04:01:32;;;;;;;19.13;17.33;;;20.50;99.90;;;;;;5029335;28;20396;-86
2023/06/26 04:03:57;;;;;;;19.42;17.63;;;20.50;99.90;;;;;;5031747;28;20065;-87
2023/06/26 04:06:23;;;;;;;19.52;17.90;;;20.50;99.90;;;;;;5045572;28;20033;-87
2023/06/26 04:08:49;;;;;;;18.77;17.17;;;20.50;99.90;;;;;;5050908;28;20068;-87
2023/06/26 04:11:14;;;;;;;18.25;16.63;;;20.60;99.90;;;;;;5052165;28;20549;-86
2023/06/26 04:13:40;;;;;;;17.35;15.85;;;20.60;99.90;;;;;;5036229;28;20040;-87
2023/06/26 04:16:06;;;;;;;18.83;17.13;;;20.60;99.90;;;;;;5055481;28;20043;-87
2023/06/26 04:18:32;;;;;;;18.50;16.80;;;20.60;99.90;;;;;;5038325;28;20047;-87
2023/06/26 04:21:11;;;;;;;18.25;16.75;;;20.70;99.90;;;;;;5044523;28;20040;-87
2023/06/26 04:23:38;;;;;;;19.10;17.40;;;20.80;99.90;;;;;;5052094;28;20040;-87
2023/06/26 04:26:08;;;;;;;19.23;17.42;;;20.80;99.90;;;;;;5045229;28;20039;-87
2023/06/26 04:28:35;;;;;;;18.95;17.35;;;20.80;99.90;;;;;;5051417;28;20040;-87
2023/06/26 04:31:02;;;;;;;20.70;18.70;;;20.90;99.90;;;;;;5047344;28;20411;-87
2023/06/26 04:33:29;;;;;;;19.85;17.95;;;20.80;99.90;;;;;;5030133;28;20036;-87
2023/06/26 04:35:54;;;;;;;18.75;17.15;;;20.90;99.90;;;;;;5042275;28;20045;-87
2023/06/26 04:38:21;;;;;;;19.38;17.63;;;20.90;99.90;;;;;;5045755;28;20692;-87
2023/06/26 04:40:47;;;;;;;18.63;16.92;;;20.90;99.90;;;;;;5039774;28;20087;-87
2023/06/26 04:43:13;;;;;;;18.02;16.42;;;20.90;99.90;;;;;;5037253;28;20024;-87
2023/06/26 04:45:39;;;;;;;17.45;15.85;;;20.90;99.90;;;;;;5050982;28;20113;-87
2023/06/26 04:48:05;;;;;;;17.73;16.13;;;20.90;99.90;;;;;;5048021;28;20036;-87
2023/06/26 04:50:33;;;;;;;17.63;16.02;;;21.00;99.90;;;;;;5027917;28;20078;-87
2023/06/26 04:52:59;;;;;;;16.63;15.18;;;21.10;99.90;;;;;;5028108;28;20051;-87
2023/06/26 04:55:25;;;;;;;16.95;15.43;;;21.10;99.90;;;;;;5042795;28;20478;-85
2023/06/26 04:57:53;;;;;;;15.93;14.43;;;21.30;99.90;;;;;;5030042;28;20040;-87
2023/06/26 05:00:22;;;;;;;14.82;13.45;;;21.40;99.90;;;;;;5029757;28;20039;-87
2023/06/26 05:02:48;;;;;;;14.73;13.20;;;21.50;99.90;;;;;;5033580;28;20024;-87
2023/06/26 05:05:13;;;;;;;15.02;12.95;;;21.60;99.90;;;;;;5050602;28;20031;-87
2023/06/26 05:07:42;;;;;;;13.52;12.27;;;21.70;99.90;;;;;;5042696;28;20509;-87
2023/06/26 05:10:08;;;;;;;14.20;11.63;;;21.80;99.90;;;;;;5043924;28;20052;-87
2023/06/26 05:12:34;;;;;;;14.25;11.45;;;21.80;99.90;;;;;;5028209;28;20044;-87
2023/06/26 05:14:59;;;;;;;14.52;11.00;;;21.80;99.90;;;;;;5050853;28;20041;-87
2023/06/26 05:17:25;;;;;;;12.88;11.48;;;21.80;99.90;;;;;;5048956;28;20470;-88
2023/06/26 05:19:51;;;;;;;11.43;9.70;;;21.80;99.90;;;;;;5044015;28;20032;-87
2023/06/26 05:22:17;;;;;;;13.27;10.40;;;21.90;99.90;;;;;;5052918;28;20090;-86
2023/06/26 05:24:46;;;;;;;14.93;10.38;;;21.90;99.90;;;;;;5050738;28;20090;-87
2023/06/26 05:27:19;;;;;;;11.20;8.75;;;21.80;99.90;;;;;;5036383;28;20099;-87
2023/06/26 05:29:45;;;;;;;13.88;9.32;;;21.80;99.90;;;;;;5032323;28;20051;-87
2023/06/26 05:32:12;;;;;;;12.70;8.40;;;21.70;99.90;;;;;;5047565;28;20124;-81
2023/06/26 05:34:39;;;;;;;15.75;9.35;;;21.70;99.90;;;;;;5054178;28;20390;-82
2023/06/26 05:37:06;;;;;;;13.50;8.68;;;21.70;99.90;;;;;;5053414;28;20044;-84
2023/06/26 05:39:32;;;;;;;13.30;8.60;;;21.70;99.90;;;;;;5062119;28;20092;-83
2023/06/26 05:41:58;;;;;;;13.23;8.13;;;21.70;99.90;;;;;;5062293;28;20032;-84
2023/06/26 05:44:24;;;;;;;12.40;8.40;;;21.80;99.90;;;;;;5039214;28;20111;-83
2023/06/26 05:46:49;;;;;;;13.60;7.18;;;21.90;99.90;;;;;;5054824;28;20033;-83
2023/06/26 05:49:15;;;;;;;14.20;7.65;;;22.00;99.90;;;;;;5058681;28;20044;-85
2023/06/26 05:51:41;;;;;;;12.05;8.07;;;21.90;99.90;;;;;;5032360;28;20063;-84
2023/06/26 05:54:07;;;;;;;15.95;7.53;;;21.80;99.90;;;;;;5038583;28;20048;-84
2023/06/26 05:56:36;;;;;;;14.77;8.70;;;21.70;99.90;;;;;;5071001;28;20045;-80
2023/06/26 05:59:03;;;;;;;14.70;8.10;;;21.40;99.90;;;;;;5074430;28;20048;-85
2023/06/26 06:01:29;;;;;;;13.05;7.88;;;21.30;99.90;;;;;;5050391;28;20063;-84
2023/06/26 06:03:54;;;;;;;13.75;8.38;;;21.30;99.90;;;;;;5054999;28;20561;-85
2023/06/26 06:06:20;;;;;;;14.88;8.15;;;21.30;99.90;;;;;;5055556;28;20059;-85
2023/06/26 06:08:46;;;;;;;10.38;8.18;;;21.20;99.90;;;;;;5051816;28;20045;-85
2023/06/26 06:11:11;;;;;;;9.30;7.65;;;21.20;99.90;;;;;;5050686;28;20246;-84
2023/06/26 06:13:37;;;;;;;9.23;7.20;;;21.10;99.90;;;;;;5049090;28;20040;-82
2023/06/26 06:16:03;;;;;;;9.60;7.38;;;21.20;99.90;;;;;;5049300;28;20041;-84
2023/06/26 06:18:28;;;;;;;8.27;6.40;;;21.30;99.90;;;;;;5051810;28;20036;-83
2023/06/26 06:20:54;;;;;;;11.45;7.30;;;21.50;99.90;;;;;;5034757;28;20097;-85
2023/06/26 06:23:20;;;;;;;8.85;7.07;;;21.50;99.90;;;;;;5029583;28;20051;-84
2023/06/26 06:25:48;;;;;;;12.10;6.40;;;21.60;99.90;;;;;;5048420;28;20029;-84
2023/06/26 06:28:16;;;;;;;8.10;5.43;;;21.70;99.90;;;;;;5048569;28;20150;-86
2023/06/26 06:30:42;;;;;;;9.65;4.78;;;21.70;99.90;;;;;;5056700;28;20111;-85
2023/06/26 06:33:07;;;;;;;10.20;4.60;;;21.70;99.90;;;;;;5053814;28;20469;-84
2023/06/26 06:35:33;;;;;;;7.05;4.32;;;21.50;99.90;;;;;;5028390;28;20098;-86
2023/06/26 06:37:58;;;;;;;6.55;4.07;;;21.40;99.90;;;;;;5049087;28;20512;-84
2023/06/26 06:40:25;;;;;;;5.35;3.88;;;21.50;99.90;;;;;;5055650;28;20040;-85
2023/06/26 06:42:51;;;;;;;7.05;3.92;;;21.60;99.90;;;;;;5038630;28;20040;-85
2023/06/26 06:45:17;;;;;;;7.20;4.00;;;21.80;99.90;;;;;;5044470;28;20040;-85
2023/06/26 06:47:42;;;;;;;11.75;4.25;;;21.80;99.90;;;;;;5049743;28;20039;-86
2023/06/26 06:50:08;;;;;;;6.65;4.13;;;21.80;99.90;;;;;;5047570;28;20094;-84
2023/06/26 06:52:38;;;;;;;5.35;2.97;;;21.80;99.90;;;;;;5049218;28;20036;-86
2023/06/26 06:55:08;;;;;;;7.82;3.20;;;21.80;99.90;;;;;;5030270;28;20090;-85
2023/06/26 06:57:38;;;;;;;4.88;2.85;;;21.90;99.90;;;;;;5054504;28;20047;-84
2023/06/26 07:00:10;;;;;;;5.53;2.80;;;22.00;99.90;;;;;;5032417;28;20115;-83
2023/06/26 07:02:36;;;;;;;5.45;2.97;;;22.10;99.90;;;;;;5027627;28;20167;-85
2023/06/26 07:05:06;;;;;;;5.65;2.47;;;22.30;99.90;;;;;;5044403;28;20044;-85
2023/06/26 07:07:33;;;;;;;4.53;2.47;;;22.40;99.90;;;;;;5030796;28;20033;-85
2023/06/26 07:10:00;;;;;;;4.95;2.40;;;22.40;99.90;;;;;;5031003;28;20107;-85
2023/06/26 07:12:25;;;;;;;3.53;2.15;;;22.50;99.90;;;;;;5030962;28;20040;-85
2023/06/26 07:14:51;;;;;;;4.93;1.92;;;22.70;99.90;;;;;;5040658;28;20516;-86
2023/06/26 07:17:17;;;;;;;3.33;2.30;;;22.70;99.90;;;;;;5048642;28;20121;-85
2023/06/26 07:19:42;;;;;;;4.32;2.20;;;22.60;99.90;;;;;;5047134;28;20116;-85
2023/06/26 07:22:08;;;;;;;4.78;1.83;;;22.50;99.90;;;;;;5047663;28;20029;-86
2023/06/26 07:24:33;;;;;;;4.25;2.20;;;22.50;99.90;;;;;;5062467;28;20074;-86
2023/06/26 07:27:00;;;;;;;3.22;1.83;;;22.60;99.90;;;;;;5069546;28;20104;-86
2023/06/26 07:29:26;;;;;;;4.78;1.95;;;22.70;99.90;;;;;;5046334;28;20513;-89
2023/06/26 07:31:52;;;;;;;3.70;1.92;;;22.70;99.90;;;;;;5023650;28;20041;-84
2023/06/26 07:34:17;;;;;;;5.68;2.40;;;22.70;99.90;;;;;;5046992;28;20132;-85
2023/06/26 07:36:46;;;;;;;4.45;2.00;;;22.80;99.90;;;;;;5047301;28;20032;-85
2023/06/26 07:39:12;;;;;;;6.13;2.30;;;22.80;99.90;;;;;;5029355;28;20123;-90
2023/06/26 07:41:37;;;;;;;3.95;1.95;;;22.80;99.90;;;;;;5021028;28;20124;-85
2023/06/26 07:44:03;;;;;;;4.28;1.92;;;22.80;99.90;;;;;;5044457;28;20029;-86
2023/06/26 07:46:29;;;;;;;7.00;2.30;;;23.10;99.90;;;;;;5029552;28;20032;-85
2023/06/26 07:48:54;;;;;;;4.55;2.30;;;23.30;99.90;;;;;;5057020;28;20103;-87
2023/06/26 07:51:21;;;;;;;3.58;2.08;;;23.50;99.90;;;;;;5019513;28;20045;-83
2023/06/26 07:53:55;;;;;;;3.75;2.22;;;23.70;99.90;;;;;;5037228;28;20045;-89
2023/06/26 07:56:21;;;;;;;4.82;2.00;;;23.70;99.90;;;;;;5033872;28;20036;-86
2023/06/26 07:58:46;;;;;;;2.50;1.95;;;23.80;99.90;;;;;;5041498;28;20044;-85
2023/06/26 08:01:12;;;;;;;3.33;1.88;;;23.90;99.90;;;;;;5022823;28;20039;-87
2023/06/26 08:03:38;;;;;;;3.60;2.20;;;23.90;99.90;;;;;;5047008;28;20048;-89
2023/06/26 08:06:04;;;;;;;3.47;1.65;;;24.00;99.90;;;;;;5033484;28;20502;-87
2023/06/26 08:08:30;;;;;;;3.35;1.80;;;24.00;99.90;;;;;;5047893;28;20306;-89
2023/06/26 08:10:55;;;;;;;2.50;2.03;;;24.00;99.90;;;;;;5026742;28;20033;-87
2023/06/26 08:13:21;;;;;;;3.03;1.88;;;24.20;99.90;;;;;;5036056;28;20115;-86
2023/06/26 08:15:47;;;;;;;4.40;1.70;;;24.20;99.90;;;;;;5047991;28;20109;-89
2023/06/26 08:18:12;;;;;;;2.85;1.73;;;24.00;99.90;;;;;;5037878;28;20078;-88
2023/06/26 08:20:38;;;;;;;2.47;1.60;;;23.80;99.90;;;;;;5040643;28;20044;-82
2023/06/26 08:23:04;;;;;;;2.38;1.85;;;23.80;99.90;;;;;;5044744;28;20114;-91
2023/06/26 08:25:30;;;;;;;2.05;1.70;;;23.80;99.90;;;;;;5043987;28;20406;-90
2023/06/26 08:27:59;;;;;;;5.10;1.92;;;23.80;99.90;;;;;;5048351;28;20032;-90
2023/06/26 08:30:27;;;;;;;4.32;1.92;;;24.10;99.90;;;;;;5046508;28;20373;-83
2023/06/26 08:33:02;;;;;;;2.85;1.70;;;24.20;99.90;;;;;;5075713;28;20063;-84
2023/06/26 08:35:27;;;;;;;3.58;1.60;;;24.10;99.90;;;;;;5051660;28;20032;-83
2023/06/26 08:37:54;;;;;;;5.80;2.30;;;24.20;99.90;;;;;;5032355;28;20120;-83
2023/06/26 08:40:20;;;;;;;3.38;1.67;;;24.40;99.90;;;;;;5031364;28;20033;-84
2023/06/26 08:42:46;;;;;;;3.15;1.77;;;24.70;99.90;;;;;;5034511;28;20029;-83
2023/06/26 08:45:12;;;;;;;2.90;1.88;;;24.90;99.90;;;;;;5034263;28;20033;-83
2023/06/26 08:47:45;;;;;;;3.08;1.67;;;24.80;99.90;;;;;;5048754;28;20062;-89
2023/06/26 08:50:13;;;;;;;4.65;1.83;;;25.00;99.90;;;;;;5032227;28;20036;-89
2023/06/26 08:53:20;;;;;;;3.65;2.25;;;24.90;99.90;;;;;;5028182;28;20514;-90
2023/06/26 08:55:52;;;;;;;3.92;2.20;;;24.60;99.90;;;;;;5028439;28;20053;-88
2023/06/26 08:58:25;;;;;;;2.63;2.05;;;24.80;99.90;;;;;;5038704;28;20055;-91
2023/06/26 09:00:55;;;;;;;2.65;2.20;;;25.00;99.90;;;;;;5045291;28;20695;-90
2023/06/26 09:03:23;;;;;;;6.35;1.98;;;24.80;99.90;;;;;;5057385;28;20075;-86
2023/06/26 09:05:48;;;;;;;2.58;1.80;;;24.60;99.90;;;;;;5043107;28;20718;-87
2023/06/26 09:08:14;;;;;;;3.63;1.98;;;24.70;99.90;;;;;;5047932;28;20033;-86
2023/06/26 09:10:40;;;;;;;2.50;1.90;;;25.00;99.90;;;;;;5050257;28;20063;-84
2023/06/26 09:13:06;;;;;;;3.15;1.90;;;25.10;99.90;;;;;;5068898;28;20040;-86
2023/06/26 09:15:45;;;;;;;4.50;2.20;;;25.20;99.90;;;;;;5047598;28;20351;-88
2023/06/26 09:18:11;;;;;;;3.58;2.00;;;24.80;99.20;;;;;;5054297;28;20684;-84
2023/06/26 09:20:37;;;;;;;4.80;2.03;;;24.60;99.90;;;;;;5037999;28;20053;-84
2023/06/26 09:23:04;;;;;;;4.25;1.90;;;24.60;99.90;;;;;;5030769;28;20135;-85
2023/06/26 09:25:29;;;;;;;4.82;2.33;;;24.80;99.90;;;;;;5038032;28;20032;-84
2023/06/26 09:27:56;;;;;;;5.32;2.20;;;25.20;99.90;;;;;;5043908;28;20032;-86
2023/06/26 09:30:22;;;;;;;2.65;2.00;;;25.60;99.90;;;;;;5039020;28;20048;-85
2023/06/26 09:32:50;;;;;;;4.13;2.20;;;25.60;99.90;;;;;;5031851;28;20115;-85
2023/06/26 09:35:16;;;;;;;5.38;2.03;;;25.60;99.90;;;;;;5042354;28;20040;-89
2023/06/26 09:37:43;;;;;;;5.80;2.35;;;25.40;99.90;;;;;;5053927;28;20039;-85
2023/06/26 09:40:09;;;;;;;3.97;2.75;;;25.10;99.90;;;;;;5046598;28;20024;-86
2023/06/26 09:42:35;;;;;;;4.60;2.53;;;24.90;98.90;;;;;;5048221;28;20039;-86
2023/06/26 09:45:02;;;;;;;3.75;2.78;;;24.90;99.10;;;;;;5027106;28;20036;-88
2023/06/26 09:47:30;;;;;;;3.95;2.55;;;25.10;99.70;;;;;;5047740;28;20036;-87
2023/06/26 09:49:56;;;;;;;4.97;2.70;;;25.70;99.90;;;;;;5063470;28;20098;-84
2023/06/26 09:52:25;;;;;;;2.85;2.28;;;25.80;99.50;;;;;;5029582;28;20036;-86
2023/06/26 09:55:06;;;;;;;8.55;2.40;;;25.90;97.80;;;;;;5036671;28;20047;-89
2023/06/26 09:57:35;;;;;;;5.25;2.60;;;25.80;96.70;;;;;;5030570;28;20045;-87
2023/06/26 10:00:06;;;;;;;3.15;2.22;;;26.00;96.10;;;;;;5048634;28;20037;-88
2023/06/26 10:02:31;;;;;;;3.75;2.28;;;26.30;94.90;;;;;;5030492;28;20685;-88
2023/06/26 10:04:57;;;;;;;4.43;2.53;;;26.30;94.10;;;;;;5029179;28;20033;-87
2023/06/26 10:07:24;;;;;;;5.10;2.20;;;26.40;93.70;;;;;;5029578;28;20028;-87
2023/06/26 10:09:53;;;;;;;2.80;1.85;;;26.40;91.50;;;;;;5049041;28;20367;-87
2023/06/26 10:12:25;;;;;;;6.47;2.20;;;26.40;87.00;;;;;;5052154;28;20444;-87
2023/06/26 10:14:52;;;;;;;6.32;2.38;;;26.30;86.00;;;;;;5043836;28;20094;-88
2023/06/26 10:17:22;;;;;;;2.97;2.20;;;26.70;83.60;;;;;;5029236;28;20216;-87
2023/06/26 10:19:49;;;;;;;4.10;2.15;;;26.50;79.80;;;;;;5051308;28;20036;-89
2023/06/26 10:22:20;;;;;;;4.93;2.28;;;26.00;78.90;;;;;;5054834;28;20048;-86
2023/06/26 10:24:49;;;;;;;4.45;2.40;;;25.90;80.50;;;;;;5032235;28;20063;-87
2023/06/26 10:27:19;;;;;;;2.50;2.30;;;25.60;81.70;;;;;;5046003;28;20044;-86
2023/06/26 10:29:53;;;;;;;5.10;2.60;;;25.40;84.20;;;;;;5048308;28;20118;-86
2023/06/26 10:32:20;;;;;;;4.43;2.90;;;25.70;83.00;;;;;;5041556;28;20044;-87
2023/06/26 10:34:46;;;;;;;5.75;2.50;;;25.90;83.00;;;;;;5027409;28;20041;-87
2023/06/26 10:37:12;;;;;;;6.90;2.42;;;26.40;84.30;;;;;;5040533;28;20039;-90
2023/06/26 10:39:49;;;;;;;5.15;2.40;;;26.70;81.90;;;;;;5020813;28;20044;-88
2023/06/26 10:42:16;;;;;;;3.65;2.47;;;26.80;73.80;;;;;;5044455;28;20044;-87
2023/06/26 10:44:47;;;;;;;3.17;2.20;;;26.90;72.70;;;;;;5030921;28;20068;-87
2023/06/26 10:47:31;;;;;;;5.20;2.15;;;26.90;69.20;;;;;;5035482;28;20033;-86
2023/06/26 10:49:56;;;;;;;6.75;1.90;;;27.00;66.80;;;;;;5053245;28;20089;-85
2023/06/26 10:52:25;;;;;;;6.25;2.22;;;26.90;68.40;;;;;;5039327;28;20115;-86
2023/06/26 10:54:54;;;;;;;7.03;2.30;;;26.70;67.10;;;;;;5031217;28;20048;-86
2023/06/26 10:57:25;;;;;;;8.00;2.13;;;27.00;66.90;;;;;;5020711;28;20123;-84
2023/06/26 11:00:13;;;;;;;6.20;2.17;;;27.10;68.10;;;;;;5041685;28;20108;-84
2023/06/26 11:02:52;;;;;;;4.13;2.38;;;27.10;65.30;;;;;;5023222;28;20040;-84
2023/06/26 11:05:29;;;;;;;4.90;1.63;;;27.10;66.90;;;;;;5041652;28;20101;-84
2023/06/26 11:08:12;;;;;;;4.10;2.28;;;27.50;65.40;;;;;;5025820;28;20033;-88
2023/06/26 11:10:51;;;;;;;;;;;27.40;64.40;;;;;;5029239;28;20621;-87
2023/06/26 11:13:24;;;;;;;10.40;2.20;;;27.20;60.70;;;;;;5024295;28;19987;-86
2023/06/26 11:16:07;;;;;;;9.55;1.77;;;26.50;60.60;;;;;;5019869;28;20037;-85
2023/06/26 11:18:33;;;;;;;2.50;1.77;;;26.40;61.90;;;;;;5040505;28;20544;-86
2023/06/26 11:21:15;;;;;;;2.33;1.50;;;26.50;61.40;;;;;;5032726;28;20044;-84
2023/06/26 11:23:41;;;;;;;3.20;1.70;;;26.60;56.40;;;;;;5042318;28;20044;-86
2023/06/26 11:26:17;;;;;;;5.65;2.00;;;27.10;59.00;;;;;;5030580;28;20062;-82
2023/06/26 11:28:51;;;;;;;3.15;1.80;;;27.40;57.90;;;;;;5029092;28;20044;-83
2023/06/26 11:31:31;;;;;;;3.40;2.17;;;27.40;57.80;;;;;;5042910;28;20033;-85
2023/06/26 11:34:01;;;;;;;3.65;2.13;;;27.10;57.50;;;;;;5039289;28;20115;-87
2023/06/26 11:36:27;;;;;;;3.92;2.10;;;27.10;59.90;;;;;;5028029;28;20067;-85
2023/06/26 11:39:00;;;;;;;6.65;1.92;;;27.30;59.30;;;;;;5033612;28;20410;-83
2023/06/26 11:41:30;;;;;;;4.22;2.10;;;27.10;58.20;;;;;;5054387;28;20109;-86
2023/06/26 11:44:03;;;;;;;8.43;2.90;;;27.20;57.30;;;;;;5053422;28;20054;-92
2023/06/26 11:46:31;;;;;;;2.85;2.13;;;27.40;57.80;;;;;;5044530;28;20393;-89
2023/06/26 11:48:57;;;;;;;2.40;1.48;;;27.50;56.80;;;;;;5044772;28;20044;-87
2023/06/26 11:51:23;;;;;;;2.92;1.60;;;27.10;56.60;;;;;;5048166;28;20044;-86
2023/06/26 11:53:52;;;;;;;3.05;1.80;;;27.20;56.40;;;;;;5041119;28;20531;-88
2023/06/26 11:56:18;;;;;;;3.50;2.10;;;27.40;57.00;;;;;;5041016;28;20044;-84
2023/06/26 11:59:06;;;;;;;3.78;1.73;;;27.50;57.20;;;;;;5030085;28;20037;-86
2023/06/26 12:01:34;;;;;;;3.17;1.90;;;27.80;57.30;;;;;;5027992;28;20405;-86
2023/06/26 12:04:03;;;;;;;5.28;1.88;;;27.90;57.30;;;;;;5045265;28;20055;-88
2023/06/26 12:06:39;;;;;;;10.52;1.90;;;27.90;56.60;;;;;;5045908;28;20115;-87
2023/06/26 12:09:08;;;;;;;4.40;1.85;;;28.30;55.80;;;;;;5050430;28;20036;-84
2023/06/26 12:11:36;;;;;;;3.17;1.55;;;27.90;54.90;;;;;;5055445;28;20091;-84
2023/06/26 12:14:03;;;;;;;2.65;1.35;;;27.30;53.50;;;;;;5055418;28;20062;-85
2023/06/26 12:16:30;;;;;;;2.20;1.33;;;26.70;52.20;;;;;;5054946;28;20045;-85
2023/06/26 12:19:00;;;;;;;2.97;1.48;;;26.60;52.80;;;;;;5047527;28;20041;-85
2023/06/26 12:21:44;;;;;;;6.68;1.52;;;26.90;53.80;;;;;;5029937;28;20059;-88
2023/06/26 12:24:15;;;;;;;2.55;1.50;;;27.00;54.60;;;;;;5049432;28;20106;-84
2023/06/26 12:26:45;;;;;;;5.13;1.45;;;27.10;55.10;;;;;;5048569;28;20036;-82
2023/06/26 12:29:19;;;;;;;2.38;1.52;;;27.00;55.10;;;;;;5045915;28;20080;-86
2023/06/26 12:31:52;;;;;;;5.82;1.40;;;27.10;55.10;;;;;;5054063;28;20532;-84
2023/06/26 12:34:21;;;;;;;3.28;1.33;;;27.20;56.00;;;;;;5038678;28;20040;-84
2023/06/26 12:36:49;;;;;;;2.08;1.30;;;27.80;57.20;;;;;;5070674;28;20036;-83
2023/06/26 12:39:17;;;;;;;3.75;1.40;;;28.30;56.10;;;;;;5053533;28;20052;-79
2023/06/26 12:41:53;;;;;;;7.28;1.67;;;28.00;52.10;;;;;;5053298;28;20074;-88
2023/06/26 12:44:29;;;;;;;7.00;1.42;;;27.60;50.30;;;;;;5061298;28;20501;-87